KGAD/GAD METAR and TAF weather

Enter ICAO airport designator
Station Type Date Time Source
KGAD METAR 2020/09/19 21:56 UTC NOAA

KGAD 192156Z AUTO 07007KT 10SM CLR 22/16 A3014 RMK AO2 SLP205 T02220156


Station Type Date Time Source
KGAD Decoded METAR 2020/09/19 21:56 UTC NOAA

Gadsden, Gadsden Municipal Airport, AL, United States (KGAD) 33-58N 086-05W
Sep 19, 2020 - 05:56 PM EDT / 2020.09.19 2156 UTC
Wind: from the ENE (070 degrees) at 8 MPH (7 KT):0
Visibility: 10 mile(s):0
Sky conditions: clear
Temperature: 72.0 F (22.2 C)
Dew Point: 60.1 F (15.6 C)
Relative Humidity: 66%
Pressure (altimeter): 30.14 in. Hg (1020 hPa)
ob: KGAD 192156Z AUTO 07007KT 10SM CLR 22/16 A3014 RMK AO2 SLP205 T02220156
cycle: 22

Station Type Date Time Source
KGAD TAF UTC NOAA

Error!

Example: see airport list